Time;durP1;ratioP1;P1;durP2;ratioP2;P2;SDS_P1;SDS_P2;PMS_P1;PMS_P2;Temp;Humidity;BMP_temperature;BMP_pressure;BME280_temperature;BME280_humidity;BME280_pressure;Samples;Min_cycle;Max_cycle;Signal;HPM_P1;HPM_P2
2022/04/14 00:00:30;;;;;;;25.10;13.30;;;;;;;7.02;48.30;100303.83;104757;1274;75028;-62
2022/04/14 00:03:19;;;;;;;28.80;13.50;;;;;;;7.02;48.42;100300.85;104909;1274;68619;-63
2022/04/14 00:06:08;;;;;;;27.30;14.10;;;;;;;7.00;48.42;100301.44;104736;1274;74133;-63
2022/04/14 00:08:56;;;;;;;25.10;13.40;;;;;;;6.98;48.57;100301.87;104695;1274;60478;-62
2022/04/14 00:11:44;;;;;;;27.50;13.10;;;;;;;6.97;48.76;100300.04;104769;1274;61613;-65
2022/04/14 00:14:32;;;;;;;24.50;12.00;;;;;;;6.95;48.68;100296.08;104569;1275;73841;-62
2022/04/14 00:17:20;;;;;;;22.40;11.70;;;;;;;6.95;48.81;100297.33;104740;1274;67949;-61
2022/04/14 00:20:10;;;;;;;27.50;13.90;;;;;;;6.95;48.72;100294.70;104755;1274;73111;-65
2022/04/14 00:22:59;;;;;;;22.30;12.90;;;;;;;6.95;48.72;100295.02;104884;1274;60591;-63
2022/04/14 00:25:48;;;;;;;28.00;13.70;;;;;;;6.96;48.71;100289.52;104907;1274;60484;-64
2022/04/14 00:28:36;;;;;;;23.00;12.20;;;;;;;6.98;48.59;100286.95;104814;1274;74061;-63
2022/04/14 00:31:24;;;;;;;26.50;12.50;;;;;;;7.01;48.43;100283.25;104751;1274;67456;-63
2022/04/14 00:34:12;;;;;;;25.20;12.10;;;;;;;7.03;48.33;100284.37;104637;1274;73333;-64
2022/04/14 00:37:00;;;;;;;22.70;11.80;;;;;;;7.05;48.44;100281.23;104678;1274;60480;-63
2022/04/14 00:39:50;;;;;;;23.30;12.00;;;;;;;7.07;48.10;100274.02;104925;1274;60500;-63
2022/04/14 00:42:38;;;;;;;24.50;11.30;;;;;;;7.11;48.23;100273.46;104669;1274;74170;-63
2022/04/14 00:45:26;;;;;;;23.70;11.10;;;;;;;7.14;48.31;100272.77;104793;1274;66637;-63
2022/04/14 00:48:13;;;;;;;24.00;11.90;;;;;;;7.16;48.35;100271.55;104651;1274;73942;-66
2022/04/14 00:51:03;;;;;;;21.90;11.40;;;;;;;7.19;48.02;100271.73;104729;1274;60596;-66
2022/04/14 00:53:50;;;;;;;27.10;12.40;;;;;;;7.20;48.11;100269.20;104767;1274;60906;-66
2022/04/14 00:56:38;;;;;;;23.50;11.10;;;;;;;7.22;47.97;100270.34;104833;1274;73958;-65
2022/04/14 00:59:27;;;;;;;23.90;11.50;;;;;;;7.23;47.91;100266.58;104717;1274;69512;-63
2022/04/14 01:02:16;;;;;;;27.10;11.50;;;;;;;7.24;47.83;100263.85;104479;1274;72956;-62
2022/04/14 01:05:04;;;;;;;22.50;10.70;;;;;;;7.25;47.83;100259.54;104967;1274;61151;-63
2022/04/14 01:07:56;;;;;;;24.20;11.50;;;;;;;7.26;47.63;100255.77;104717;1274;60451;-64
2022/04/14 01:10:49;;;;;;;22.10;10.90;;;;;;;7.27;47.77;100252.54;104680;1274;75171;-66
2022/04/14 01:13:37;;;;;;;22.40;10.30;;;;;;;7.29;47.33;100246.23;104555;1274;69761;-65
2022/04/14 01:16:25;;;;;;;20.10;10.30;;;;;;;7.31;47.32;100245.41;104738;1274;71719;-66
2022/04/14 01:19:13;;;;;;;23.40;10.10;;;;;;;7.32;47.39;100237.97;104690;1274;60567;-66
2022/04/14 01:22:18;;;;;;;24.70;9.90;;;;;;;7.32;47.59;100239.00;104855;1274;61925;-66
2022/04/14 01:25:06;;;;;;;19.10;9.90;;;;;;;7.34;47.42;100240.48;104753;1274;74395;-66
2022/04/14 01:27:57;;;;;;;21.10;10.10;;;;;;;7.33;47.37;100238.77;104721;1274;68495;-65
2022/04/14 01:30:45;;;;;;;21.10;10.70;;;;;;;7.33;47.49;100239.27;104833;1274;72333;-65
2022/04/14 01:33:33;;;;;;;20.20;10.20;;;;;;;7.34;47.46;100235.38;104794;1274;60510;-64
2022/04/14 01:36:21;;;;;;;20.90;10.60;;;;;;;7.33;47.26;100228.54;104715;1273;60403;-65
2022/04/14 01:39:10;;;;;;;19.50;9.80;;;;;;;7.32;47.59;100222.41;104871;1274;75640;-62
2022/04/14 01:41:59;;;;;;;20.40;9.50;;;;;;;7.32;47.32;100216.41;104942;1274;68476;-65
2022/04/14 01:44:48;;;;;;;21.90;10.00;;;;;;;7.32;47.21;100210.04;104482;1274;1003878;-62
2022/04/14 01:47:45;;;;;;;18.70;9.10;;;;;;;7.34;47.57;100209.63;106347;1274;60559;-65
2022/04/14 01:50:33;;;;;;;17.70;8.30;;;;;;;7.35;47.22;100207.25;106014;1275;60297;-63
2022/04/14 01:53:21;;;;;;;20.20;9.60;;;;;;;7.36;47.37;100206.27;106456;1274;73265;-64
2022/04/14 01:56:09;;;;;;;21.00;9.20;;;;;;;7.39;47.23;100205.73;106130;1274;66820;-67
2022/04/14 01:58:59;;;;;;;19.30;8.80;;;;;;;7.41;47.01;100196.60;105125;1274;74610;-65
2022/04/14 02:01:46;;;;;;;19.30;8.80;;;;;;;7.43;47.11;100192.63;102684;1274;1003794;-63
2022/04/14 02:04:34;;;;;;;18.00;8.30;;;;;;;7.43;47.15;100188.52;104816;1274;61041;-63
2022/04/14 02:07:22;;;;;;;18.50;9.00;;;;;;;7.45;46.97;100183.81;104814;1274;74633;-64
2022/04/14 02:10:13;;;;;;;17.10;8.90;;;;;;;7.47;47.11;100181.41;104714;1275;69567;-64
2022/04/14 02:13:01;;;;;;;17.60;8.30;;;;;;;7.48;47.12;100179.58;103957;1274;1003225;-64
2022/04/14 02:15:50;;;;;;;20.10;8.90;;;;;;;7.49;46.92;100178.79;104740;1274;60547;-64
2022/04/14 02:18:38;;;;;;;23.50;11.00;;;;;;;7.53;47.08;100184.38;104726;1274;60498;-63
2022/04/14 02:21:26;;;;;;;21.40;9.80;;;;;;;7.55;46.95;100183.58;104732;1274;75577;-63
2022/04/14 02:24:14;;;;;;;20.80;8.70;;;;;;;7.58;46.96;100176.83;104717;1274;69529;-62
2022/04/14 02:27:03;;;;;;;20.60;9.80;;;;;;;7.62;46.91;100177.48;104729;1274;74236;-61
2022/04/14 02:29:51;;;;;;;21.70;9.20;;;;;;;7.63;47.05;100175.11;104692;1275;60503;-63
2022/04/14 02:32:39;;;;;;;19.50;8.70;;;;;;;7.64;46.78;100176.79;104688;1274;62175;-63
2022/04/14 02:35:27;;;;;;;19.20;8.20;;;;;;;7.65;47.09;100172.88;104691;1275;74692;-62
2022/04/14 02:38:16;;;;;;;17.10;8.70;;;;;;;7.65;47.15;100172.29;104593;1275;69349;-62
2022/04/14 02:41:03;;;;;;;18.40;8.50;;;;;;;7.65;47.34;100170.73;104671;1275;73229;-64
2022/04/14 02:43:52;;;;;;;15.50;8.40;;;;;;;7.63;47.51;100170.50;104859;1274;60562;-65
2022/04/14 02:46:40;;;;;;;18.90;9.00;;;;;;;7.60;47.46;100172.27;104162;1274;1003761;-66
2022/04/14 02:49:28;;;;;;;17.00;8.10;;;;;;;7.58;47.70;100170.88;104678;1275;73654;-68
2022/04/14 02:52:16;;;;;;;19.20;8.20;;;;;;;7.54;47.57;100170.05;104682;1275;68656;-64
2022/04/14 02:55:04;;;;;;;19.30;9.30;;;;;;;7.49;47.71;100169.84;104691;1275;74425;-63
2022/04/14 02:57:53;;;;;;;19.70;9.40;;;;;;;7.44;47.58;100170.34;104708;1274;60417;-63
2022/04/14 03:00:40;;;;;;;18.90;8.50;;;;;;;7.38;48.02;100173.52;104684;1275;60588;-63
2022/04/14 03:03:29;;;;;;;18.50;8.60;;;;;;;7.31;48.02;100172.00;104694;1274;74686;-63
2022/04/14 03:06:17;;;;;;;17.90;9.00;;;;;;;7.26;48.25;100178.52;104656;1275;68820;-62
2022/04/14 03:09:05;;;;;;;17.90;8.20;;;;;;;7.21;48.25;100184.46;104480;1275;74433;-64
2022/04/14 03:11:53;;;;;;;18.70;9.30;;;;;;;7.15;48.35;100182.13;104635;1274;60438;-64
2022/04/14 03:14:41;;;;;;;19.20;8.60;;;;;;;7.12;48.39;100181.80;104644;1274;61062;-64
2022/04/14 03:17:29;;;;;;;18.30;9.30;;;;;;;7.11;48.27;100187.35;104819;1274;74188;-67
2022/04/14 03:20:19;;;;;;;19.70;9.80;;;;;;;7.10;48.38;100186.01;104632;1275;68547;-67
2022/04/14 03:23:07;;;;;;;22.30;9.60;;;;;;;7.10;48.21;100184.93;104585;1274;74204;-69
2022/04/14 03:25:55;;;;;;;19.30;9.90;;;;;;;7.10;47.93;100178.41;104711;1274;60581;-67
2022/04/14 03:28:43;;;;;;;18.80;9.50;;;;;;;7.08;48.27;100174.31;104631;1274;61660;-65
2022/04/14 03:31:31;;;;;;;19.70;9.80;;;;;;;7.06;48.53;100174.79;104646;1274;73747;-64
2022/04/14 03:34:20;;;;;;;21.40;10.30;;;;;;;7.02;48.68;100167.42;104652;1274;67744;-68
2022/04/14 03:37:08;;;;;;;20.00;9.90;;;;;;;6.99;48.56;100165.30;104652;1275;72500;-65
2022/04/14 03:39:56;;;;;;;19.70;9.10;;;;;;;6.96;48.56;100161.23;104796;1275;60636;-64
2022/04/14 03:42:44;;;;;;;20.80;10.00;;;;;;;6.93;49.07;100154.06;104786;1274;60529;-64
2022/04/14 03:45:32;;;;;;;22.50;10.20;;;;;;;6.90;49.09;100147.70;103842;1274;1003614;-60
2022/04/14 03:48:20;;;;;;;23.20;10.40;;;;;;;6.87;49.52;100145.04;104600;1275;68403;-64
2022/04/14 03:51:09;;;;;;;20.60;10.20;;;;;;;6.86;49.68;100142.46;104601;1274;73720;-65
2022/04/14 03:53:57;;;;;;;24.10;10.90;;;;;;;6.87;49.33;100138.55;104653;1274;60576;-66
2022/04/14 03:56:47;;;;;;;22.00;10.30;;;;;;;6.90;49.41;100138.55;104411;1275;60472;-64
2022/04/14 03:59:35;;;;;;;21.00;10.90;;;;;;;6.91;49.25;100131.92;104572;1274;74582;-64
2022/04/14 04:02:23;;;;;;;24.50;11.50;;;;;;;6.94;49.20;100124.18;104609;1275;69696;-65
2022/04/14 04:05:11;;;;;;;20.70;10.70;;;;;;;6.96;49.19;100122.80;104643;1275;73497;-66
2022/04/14 04:07:59;;;;;;;26.90;11.20;;;;;;;6.99;49.09;100118.05;104641;1274;60653;-66
2022/04/14 04:10:48;;;;;;;26.40;11.30;;;;;;;7.03;48.89;100121.88;104706;1274;62193;-64
2022/04/14 04:13:36;;;;;;;25.80;11.60;;;;;;;7.06;49.07;100119.90;104995;1274;75109;-68
2022/04/14 04:16:23;;;;;;;30.00;11.90;;;;;;;7.09;48.78;100117.41;104692;1274;68715;-66
2022/04/14 04:19:11;;;;;;;22.30;10.60;;;;;;;7.12;48.74;100122.86;104636;1274;74543;-65
2022/04/14 04:21:59;;;;;;;21.60;11.40;;;;;;;7.17;48.48;100125.77;104626;1275;60618;-64
2022/04/14 04:24:48;;;;;;;23.10;11.50;;;;;;;7.20;48.63;100123.08;105069;1274;60470;-64
2022/04/14 04:27:36;;;;;;;22.50;10.80;;;;;;;7.23;48.45;100119.55;104662;1274;75518;-62
2022/04/14 04:30:25;;;;;;;20.50;9.70;;;;;;;7.27;48.66;100121.79;104878;1274;68888;-63
2022/04/14 04:33:13;;;;;;;20.80;10.10;;;;;;;7.29;48.54;100118.08;104833;1274;73044;-65
2022/04/14 04:36:01;;;;;;;29.90;12.60;;;;;;;7.34;48.41;100111.64;104711;1274;60593;-63
2022/04/14 04:38:49;;;;;;;22.30;10.50;;;;;;;7.37;48.82;100110.20;105534;1274;60900;-64
2022/04/14 04:41:37;;;;;;;21.40;11.20;;;;;;;7.40;48.58;100107.38;104863;1274;74406;-66
2022/04/14 04:44:25;;;;;;;20.60;10.20;;;;;;;7.42;48.73;100106.89;104842;1274;67523;-64
2022/04/14 04:47:13;;;;;;;24.00;11.30;;;;;;;7.42;48.64;100106.36;104943;1274;74541;-69
2022/04/14 04:50:06;;;;;;;22.40;10.40;;;;;;;7.46;48.50;100099.23;104743;1274;60477;-65
2022/04/14 04:52:54;;;;;;;27.90;11.00;;;;;;;7.50;48.55;100096.69;104168;1274;1003172;-65
2022/04/14 04:55:41;;;;;;;21.70;11.50;;;;;;;7.56;48.44;100095.78;104929;1274;74674;-63
2022/04/14 04:58:30;;;;;;;25.00;11.60;;;;;;;7.52;48.29;100080.26;104641;1274;68337;-62
2022/04/14 05:01:18;;;;;;;26.00;11.30;;;;;;;7.68;47.80;100093.94;104593;1274;74214;-66
2022/04/14 05:04:06;;;;;;;24.20;11.80;;;;;;;7.74;47.81;100092.62;104649;1275;60596;-62
2022/04/14 05:06:54;;;;;;;22.10;10.60;;;;;;;7.82;47.71;100094.08;104936;1274;60397;-64
2022/04/14 05:09:42;;;;;;;30.50;12.10;;;;;;;7.90;47.38;100092.66;105403;1275;72545;-62
2022/04/14 05:12:30;;;;;;;23.50;11.60;;;;;;;7.97;47.23;100092.73;106238;1274;68077;-64
2022/04/14 05:15:18;;;;;;;23.80;10.60;;;;;;;8.05;47.15;100094.36;105460;1274;74498;-65
2022/04/14 05:18:09;;;;;;;23.90;10.50;;;;;;;8.12;46.88;100089.45;104873;1274;60567;-67
2022/04/14 05:20:57;;;;;;;23.70;11.70;;;;;;;8.20;46.72;100084.84;104781;1274;61899;-65
2022/04/14 05:23:44;;;;;;;18.10;9.50;;;;;;;8.30;46.65;100078.35;104885;1274;74456;-66
2022/04/14 05:26:32;;;;;;;24.90;11.60;;;;;;;8.39;46.40;100074.55;104659;1274;67162;-69
2022/04/14 05:29:20;;;;;;;26.00;11.70;;;;;;;8.46;46.27;100071.77;104710;1274;72027;-65
2022/04/14 05:32:09;;;;;;;25.70;12.30;;;;;;;8.56;46.03;100073.64;104593;1275;60457;-65
2022/04/14 05:34:57;;;;;;;25.00;11.60;;;;;;;8.65;45.66;100075.45;104929;1274;60563;-64
2022/04/14 05:37:44;;;;;;;25.80;11.70;;;;;;;8.75;45.66;100070.14;104629;1275;74041;-64
2022/04/14 05:40:32;;;;;;;24.70;11.70;;;;;;;8.86;45.39;100072.02;104641;1274;69588;-65
2022/04/14 05:43:24;;;;;;;28.30;11.90;;;;;;;9.01;45.22;100065.86;104663;1274;74460;-62
2022/04/14 05:46:12;;;;;;;23.40;12.60;;;;;;;9.13;44.98;100065.90;103879;1274;1003090;-62
2022/04/14 05:49:00;;;;;;;24.70;11.90;;;;;;;9.29;44.78;100058.06;104838;1274;61101;-62
2022/04/14 05:51:48;;;;;;;24.60;11.40;;;;;;;9.43;44.44;100064.09;105175;1274;74604;-62
2022/04/14 05:54:36;;;;;;;26.40;11.10;;;;;;;9.56;44.21;100058.70;104646;1274;68437;-64
2022/04/14 05:57:24;;;;;;;25.80;11.70;;;;;;;9.73;43.90;100062.45;104578;1275;74036;-63
2022/04/14 06:00:13;;;;;;;27.60;12.00;;;;;;;9.95;43.62;100068.80;104565;1274;61069;-62
2022/04/14 06:03:02;;;;;;;26.00;12.80;;;;;;;10.19;43.28;100070.13;104707;1274;60413;-65
2022/04/14 06:05:51;;;;;;;25.80;11.90;;;;;;;10.49;42.85;100072.88;104574;1275;75542;-63
2022/04/14 06:08:40;;;;;;;25.10;11.80;;;;;;;10.86;42.53;100075.54;104577;1275;68439;-64
2022/04/14 06:11:28;;;;;;;27.50;12.30;;;;;;;11.24;41.75;100070.77;104757;1274;73548;-64
2022/04/14 06:14:16;;;;;;;27.00;11.70;;;;;;;11.67;40.95;100067.39;104613;1274;60590;-65
2022/04/14 06:17:04;;;;;;;23.90;13.00;;;;;;;12.20;39.85;100067.52;104485;1278;61775;-64
2022/04/14 06:19:52;;;;;;;25.20;14.20;;;;;;;12.89;38.37;100061.04;104557;1275;75544;-64
2022/04/14 06:22:43;;;;;;;26.30;13.40;;;;;;;13.89;36.88;100055.24;104608;1275;69610;-67
2022/04/14 06:25:31;;;;;;;25.00;13.40;;;;;;;14.97;34.92;100050.94;104598;1275;73285;-67
2022/04/14 06:28:19;;;;;;;22.80;14.30;;;;;;;15.90;33.04;100046.98;104682;1275;60377;-66
2022/04/14 06:31:11;;;;;;;21.70;12.90;;;;;;;16.94;31.59;100050.00;104542;1275;60747;-66
2022/04/14 06:33:59;;;;;;;22.60;12.90;;;;;;;17.92;30.32;100045.72;104645;1275;73622;-66
2022/04/14 06:36:47;;;;;;;25.80;14.60;;;;;;;18.66;28.75;100043.34;104569;1274;66845;-65
2022/04/14 06:39:35;;;;;;;24.40;15.30;;;;;;;19.66;28.52;100042.23;104618;1274;73278;-64
2022/04/14 06:42:23;;;;;;;24.20;13.70;;;;;;;20.71;27.11;100038.86;104788;1275;60409;-65
2022/04/14 06:45:14;;;;;;;22.40;12.20;;;;;;;21.39;25.78;100036.04;104583;1275;60561;-64
2022/04/14 06:48:01;;;;;;;23.30;13.50;;;;;;;21.81;25.12;100033.33;104711;1274;74735;-66
2022/04/14 06:50:50;;;;;;;24.60;13.60;;;;;;;22.33;24.78;100033.84;104777;1275;69695;-65
2022/04/14 06:53:38;;;;;;;25.40;13.60;;;;;;;22.92;23.76;100030.79;104728;1275;73814;-66
2022/04/14 06:56:26;;;;;;;25.20;12.70;;;;;;;23.43;23.58;100024.25;104888;1274;60618;-64
2022/04/14 06:59:14;;;;;;;23.50;12.80;;;;;;;23.91;22.96;100022.67;104714;1275;60500;-65
2022/04/14 07:02:04;;;;;;;21.30;12.70;;;;;;;23.98;22.63;100022.27;104916;1274;74182;-66
2022/04/14 07:04:53;;;;;;;23.90;12.90;;;;;;;24.09;22.30;100016.88;104731;1275;68201;-66
2022/04/14 07:07:45;;;;;;;23.10;13.90;;;;;;;24.03;21.96;100013.19;104756;1275;72894;-65
2022/04/14 07:10:33;;;;;;;24.40;13.30;;;;;;;23.85;22.32;100007.27;104760;1274;60487;-65
2022/04/14 07:13:25;;;;;;;21.50;12.70;;;;;;;23.72;22.87;100004.67;104752;1275;60557;-65
2022/04/14 07:16:13;;;;;;;23.80;13.20;;;;;;;23.59;22.86;100009.15;104665;1275;73407;-65
2022/04/14 07:19:01;;;;;;;23.50;12.80;;;;;;;22.92;23.20;100013.01;105018;1275;68239;-64
2022/04/14 07:21:50;;;;;;;21.10;12.10;;;;;;;22.40;23.86;100011.98;104702;1275;72249;-65
2022/04/14 07:24:38;;;;;;;24.00;12.70;;;;;;;21.72;24.95;100009.99;104643;1275;60537;-65
2022/04/14 07:27:26;;;;;;;24.00;13.40;;;;;;;21.20;25.56;100009.46;104702;1274;60496;-64
2022/04/14 07:30:15;;;;;;;22.80;12.80;;;;;;;20.69;26.40;100009.77;104689;1274;75020;-64
2022/04/14 07:33:05;;;;;;;25.60;13.40;;;;;;;20.24;26.97;100007.01;104704;1275;67504;-64
2022/04/14 07:35:53;;;;;;;26.00;13.00;;;;;;;19.72;27.86;100007.33;104722;1274;72070;-65
2022/04/14 07:38:41;;;;;;;24.90;14.60;;;;;;;19.39;28.35;100002.06;104711;1274;60379;-67
2022/04/14 07:41:29;;;;;;;27.80;14.80;;;;;;;19.16;28.65;100001.05;104691;1274;60457;-65
2022/04/14 07:44:17;;;;;;;26.20;14.80;;;;;;;19.22;28.82;100000.20;104694;1274;74555;-66
2022/04/14 07:47:05;;;;;;;28.10;15.40;;;;;;;19.33;28.97;100000.04;104921;1274;68699;-66
2022/04/14 07:49:53;;;;;;;23.80;13.00;;;;;;;19.35;29.09;99995.67;104695;1274;73403;-65
2022/04/14 07:52:55;;;;;;;29.00;15.60;;;;;;;19.25;28.93;99997.56;104730;1274;60458;-65
2022/04/14 07:55:43;;;;;;;24.90;14.10;;;;;;;19.12;29.13;99996.20;104722;1274;62060;-65
2022/04/14 07:58:33;;;;;;;24.60;13.40;;;;;;;19.08;29.34;99994.58;104716;1274;73163;-64
2022/04/14 08:01:24;;;;;;;24.70;14.20;;;;;;;19.03;29.36;99997.16;104933;1274;69133;-65
2022/04/14 08:04:13;;;;;;;27.70;14.10;;;;;;;18.95;29.52;99998.38;104752;1275;74507;-64
2022/04/14 08:07:01;;;;;;;24.40;13.20;;;;;;;18.84;29.86;99999.42;104721;1274;61064;-64
2022/04/14 08:10:05;;;;;;;29.20;14.40;;;;;;;18.84;30.07;99999.14;104955;1274;61436;-66
2022/04/14 08:12:54;;;;;;;29.30;14.80;;;;;;;18.84;29.90;100005.24;104723;1274;75622;-67
2022/04/14 08:15:43;;;;;;;29.10;15.40;;;;;;;18.79;30.09;100003.04;104649;1275;68879;-68
2022/04/14 08:18:32;;;;;;;30.30;13.90;;;;;;;18.90;30.30;100002.60;104810;1274;73564;-66
2022/04/14 08:21:20;;;;;;;24.30;14.40;;;;;;;19.11;30.15;100000.41;106339;1274;60548;-66
2022/04/14 08:24:08;;;;;;;23.10;13.80;;;;;;;19.29;30.00;99999.89;106244;1275;60509;-66
2022/04/14 08:26:56;;;;;;;29.30;14.60;;;;;;;19.39;29.84;100004.56;105952;1274;74521;-66
2022/04/14 08:29:44;;;;;;;26.40;13.50;;;;;;;19.48;29.93;100004.77;106563;1274;67482;-66
2022/04/14 08:32:34;;;;;;;28.60;14.60;;;;;;;19.64;29.56;100004.85;105410;1274;73267;-65
2022/04/14 08:35:26;;;;;;;25.40;14.20;;;;;;;19.90;29.17;99999.75;105089;1274;60496;-68
2022/04/14 08:38:13;;;;;;;31.70;14.30;;;;;;;20.15;28.71;99997.63;104782;1274;60424;-67
2022/04/14 08:41:07;;;;;;;29.20;15.10;;;;;;;20.22;28.52;99997.87;104791;1274;73320;-67
2022/04/14 08:44:04;;;;;;;36.50;15.60;;;;;;;20.15;28.69;99993.90;104842;1275;68033;-67
2022/04/14 08:46:53;;;;;;;32.50;16.10;;;;;;;20.17;29.06;99995.92;104732;1275;73123;-66
2022/04/14 08:49:44;;;;;;;28.00;15.50;;;;;;;20.46;28.66;99995.61;104905;1274;60500;-70
2022/04/14 08:52:35;;;;;;;26.90;15.70;;;;;;;20.69;27.98;100002.61;104781;1275;60431;-68
2022/04/14 08:55:24;;;;;;;25.70;15.00;;;;;;;20.81;28.18;99997.32;104680;1274;73686;-65
2022/04/14 08:58:15;;;;;;;26.30;15.50;;;;;;;20.89;27.76;100001.14;104627;1274;68666;-66
2022/04/14 09:01:04;;;;;;;27.70;16.20;;;;;;;20.75;27.79;100001.70;104672;1274;72333;-66
2022/04/14 09:04:11;;;;;;;26.30;15.20;;;;;;;20.63;28.25;100005.02;104821;1274;60514;-67
2022/04/14 09:06:59;;;;;;;31.90;14.90;;;;;;;20.82;28.18;100006.92;104537;1274;355616;-66
2022/04/14 09:09:52;;;;;;;28.30;14.80;;;;;;;20.82;28.47;100003.84;104674;1274;75492;-66
2022/04/14 09:12:40;;;;;;;29.00;15.10;;;;;;;20.52;28.35;100006.02;104673;1275;69586;-66
2022/04/14 09:15:29;;;;;;;25.20;14.40;;;;;;;20.07;29.20;99998.47;104698;1275;73505;-68
2022/04/14 09:18:17;;;;;;;30.50;14.80;;;;;;;19.99;29.72;99999.00;104684;1275;60589;-67
2022/04/14 09:21:08;;;;;;;26.40;15.30;;;;;;;20.08;29.75;100000.52;104668;1274;60590;-67
2022/04/14 09:23:57;;;;;;;27.30;15.20;;;;;;;20.21;29.41;100004.64;104818;1275;74686;-66
2022/04/14 09:26:45;;;;;;;28.40;15.10;;;;;;;20.25;29.53;100008.39;104886;1274;69076;-69
2022/04/14 09:29:33;;;;;;;31.60;16.10;;;;;;;20.11;29.61;100007.70;104727;1274;73157;-66
2022/04/14 09:32:42;;;;;;;27.70;15.40;;;;;;;19.96;29.84;100008.73;104861;1274;60506;-72
2022/04/14 09:35:31;;;;;;;37.80;16.50;;;;;;;19.94;30.18;100009.22;105176;1274;60464;-67
2022/04/14 09:38:19;;;;;;;35.30;15.90;;;;;;;20.01;30.21;100012.92;104820;1275;75165;-68
2022/04/14 09:41:37;;;;;;;34.40;14.90;;;;;;;20.03;29.85;100013.11;104593;1274;69451;-66
2022/04/14 09:44:25;;;;;;;26.80;15.30;;;;;;;20.15;30.02;100012.46;104614;1275;74411;-64
2022/04/14 09:47:40;;;;;;;32.30;15.20;;;;;;;20.21;29.83;100012.24;104778;1274;60922;-64
2022/04/14 09:50:39;;;;;;;29.70;15.60;;;;;;;20.20;29.49;100013.25;104683;1274;60686;-65
2022/04/14 09:53:30;;;;;;;29.90;14.80;;;;;;;19.95;29.85;100011.02;104617;1276;74632;-64
2022/04/14 09:56:18;;;;;;;25.30;13.80;;;;;;;20.09;30.10;100007.73;104592;1274;69605;-68
2022/04/14 09:59:08;;;;;;;25.90;14.10;;;;;;;20.28;30.27;100005.66;104733;1278;72116;-65
2022/04/14 10:02:16;;;;;;;29.40;15.00;;;;;;;20.41;29.67;100003.54;104725;1274;60634;-68
2022/04/14 10:05:08;;;;;;;25.80;14.80;;;;;;;20.56;29.65;100006.95;105004;1274;60607;-65
2022/04/14 10:07:59;;;;;;;25.30;15.20;;;;;;;20.71;29.58;100007.92;104890;1274;74644;-67
2022/04/14 10:10:49;;;;;;;26.80;14.80;;;;;;;20.83;29.79;100004.44;104605;1274;68983;-63
2022/04/14 10:13:39;;;;;;;24.40;13.90;;;;;;;21.01;29.75;99999.70;105034;1274;73571;-65
2022/04/14 10:16:27;;;;;;;27.20;15.10;;;;;;;21.23;29.19;99999.63;104923;1275;60595;-66
2022/04/14 10:19:16;;;;;;;26.10;14.80;;;;;;;21.23;29.22;100002.66;104916;1274;60501;-67
2022/04/14 10:22:06;;;;;;;27.40;15.30;;;;;;;21.11;29.71;100004.11;104809;1277;73649;-65
2022/04/14 10:24:54;;;;;;;26.80;14.90;;;;;;;20.97;29.73;100005.68;104622;1275;69646;-66
2022/04/14 10:27:43;;;;;;;27.60;13.90;;;;;;;20.86;29.98;100003.02;104708;1274;73841;-64
2022/04/14 10:30:32;;;;;;;28.80;14.50;;;;;;;20.83;30.12;100002.17;104878;1274;60480;-65
2022/04/14 10:33:20;;;;;;;28.10;14.80;;;;;;;20.76;30.07;100006.04;104696;1274;60364;-62
2022/04/14 10:36:09;;;;;;;26.00;14.70;;;;;;;20.81;30.34;100011.64;104658;1274;73908;-65
2022/04/14 10:39:04;;;;;;;28.60;14.60;;;;;;;20.84;30.21;100011.36;104850;1274;69626;-66
2022/04/14 10:41:55;;;;;;;27.50;14.70;;;;;;;20.59;30.25;100010.98;104820;1274;73503;-65
2022/04/14 10:44:56;;;;;;;25.60;14.60;;;;;;;20.05;30.90;100010.23;104734;1274;60785;-64
2022/04/14 10:47:43;;;;;;;25.00;13.90;;;;;;;19.95;31.50;100010.95;104746;1277;61151;-65
2022/04/14 10:50:35;;;;;;;27.90;13.80;;;;;;;20.15;31.84;100012.02;104930;1274;72834;-64
2022/04/14 10:53:23;;;;;;;20.80;11.60;;;;;;;20.40;31.69;100007.80;104663;1274;68715;-63
2022/04/14 10:56:44;;;;;;;21.70;11.30;;;;;;;20.48;32.50;100006.83;104656;1274;73650;-64
2022/04/14 10:59:32;;;;;;;18.50;11.40;;;;;;;20.65;33.50;100010.58;104813;1274;60345;-64
2022/04/14 11:02:20;;;;;;;22.40;11.60;;;;;;;21.00;33.68;100006.89;104616;1274;62082;-63
2022/04/14 11:05:38;;;;;;;16.50;9.10;;;;;;;21.52;33.77;100005.92;104596;1275;75590;-65
2022/04/14 11:08:31;;;;;;;16.10;7.90;;;;;;;22.02;33.80;100010.81;104601;1274;68095;-66
2022/04/14 11:11:19;;;;;;;16.10;8.40;;;;;;;22.25;33.39;100006.65;104807;1274;72651;-66
2022/04/14 11:14:07;;;;;;;15.50;8.40;;;;;;;22.55;32.97;100000.79;104620;1274;60631;-65
2022/04/14 11:16:55;;;;;;;17.00;10.00;;;;;;;22.73;32.15;100005.77;104718;1275;62004;-64
2022/04/14 11:19:42;;;;;;;16.00;9.50;;;;;;;22.58;31.75;100001.73;104600;1275;74782;-64
2022/04/14 11:23:06;;;;;;;15.20;8.80;;;;;;;22.43;32.53;99998.71;104652;1274;68543;-64
2022/04/14 11:26:08;;;;;;;14.00;8.00;;;;;;;22.11;34.18;100003.23;104577;1274;74335;-64
2022/04/14 11:28:56;;;;;;;16.30;7.50;;;;;;;21.76;35.09;100002.88;104744;1274;61002;-62
2022/04/14 11:31:46;;;;;;;16.20;7.90;;;;;;;21.61;35.45;100000.65;104675;1274;62037;-63
2022/04/14 11:34:35;;;;;;;14.70;8.00;;;;;;;21.47;35.77;99999.35;104601;1274;74267;-66
2022/04/14 11:37:50;;;;;;;17.50;7.80;;;;;;;21.36;35.97;100006.05;104639;1274;67775;-61
2022/04/14 11:40:39;;;;;;;14.40;7.60;;;;;;;21.24;36.40;100006.17;105194;1275;73563;-64
2022/04/14 11:43:27;;;;;;;17.40;8.30;;;;;;;21.03;37.02;100011.09;105504;1274;60583;-68
2022/04/14 11:46:31;;;;;;;16.20;7.10;;;;;;;20.79;37.63;100017.97;105454;1274;62207;-68
2022/04/14 11:49:27;;;;;;;12.20;6.70;;;;;;;20.64;38.11;100013.02;105006;1274;73313;-66
2022/04/14 11:52:21;;;;;;;13.30;6.80;;;;;;;20.52;38.68;100010.20;104735;1274;68574;-66
2022/04/14 11:55:11;;;;;;;12.60;6.80;;;;;;;20.40;39.28;100003.67;104649;1273;73281;-72
2022/04/14 11:58:09;;;;;;;15.10;7.20;;;;;;;20.36;39.64;100001.25;105161;1274;60511;-66
2022/04/14 12:00:57;;;;;;;13.80;6.80;;;;;;;20.34;40.00;99996.34;104660;1274;60388;-70
2022/04/14 12:03:46;;;;;;;13.90;6.90;;;;;;;20.25;40.32;99991.72;104637;1274;74719;-66
2022/04/14 12:06:38;;;;;;;13.70;7.20;;;;;;;20.12;40.46;99996.52;104735;1274;66828;-70
2022/04/14 12:09:27;;;;;;;15.50;7.10;;;;;;;20.15;40.64;99998.96;104915;1275;72835;-68
2022/04/14 12:12:18;;;;;;;15.30;7.10;;;;;;;20.20;40.34;100007.41;104989;1274;60604;-65
2022/04/14 12:15:08;;;;;;;12.10;6.40;;;;;;;20.15;40.63;100012.06;105152;1276;62291;-68
2022/04/14 12:18:07;;;;;;;13.30;7.00;;;;;;;20.01;40.99;100017.48;104741;1274;74276;-66
2022/04/14 12:20:56;;;;;;;13.40;7.30;;;;;;;19.73;41.47;100014.77;104790;1274;68677;-63
2022/04/14 12:23:50;;;;;;;14.70;6.80;;;;;;;19.48;42.19;100021.33;104853;1274;74487;-68
2022/04/14 12:26:40;;;;;;;15.50;7.10;;;;;;;19.23;43.17;100025.08;104681;1274;60484;-64
2022/04/14 12:29:32;;;;;;;9.80;4.70;;;;;;;18.93;44.24;100028.29;105212;1274;60612;-71
2022/04/14 12:32:29;;;;;;;10.90;4.70;;;;;;;18.59;45.85;100031.50;104948;1275;76717;-68
2022/04/14 12:35:38;;;;;;;10.40;3.80;;;;;;;18.33;46.69;100037.17;104959;1274;67188;-65
2022/04/14 12:38:50;;;;;;;9.50;3.90;;;;;;;18.03;47.91;100043.67;104684;1274;73024;-70
2022/04/14 12:41:38;;;;;;;8.40;3.40;;;;;;;17.72;49.35;100043.20;104856;1274;60573;-70
2022/04/14 12:44:26;;;;;;;9.80;3.90;;;;;;;17.40;50.41;100048.23;104936;1274;60624;-67
2022/04/14 12:47:15;;;;;;;8.70;3.30;;;;;;;17.16;50.99;100046.84;104663;1274;74754;-65
2022/04/14 12:50:05;;;;;;;9.60;4.40;;;;;;;16.96;52.08;100048.25;104574;1275;69254;-61